Picton, Canada
Current Conditions -  °F | °C
As of 5:00 AM on Monday 20 Oct 2014 (Local Time) from CYTR Reporting Station
Broken Clouds Broken Clouds  
Wind Chill: 34°   Ceiling: 9000
Heat Index: 37°   Visibility: 15mi
Dew Point: 36°   Wind: 5mph
Humidity: 93%   Direction: 30°NNE
Pressure: 29.95"   Gusts: NA
Location:  44.01°N, 77.14°W
Report Text: CYTR 200900Z 03004KT 15SM BKN090 03/02 A2995 RMK AC7 SLP146
Loading
Personal Weather Stations






























Interactive Weather Map New forecast layout! Learn more

10-Day Weather Forecast

Advertisements
Track Severe Weather on mobile